createdAt,value
2022-08-17T00:02:21.276Z,21.4
2022-08-17T00:07:09.205Z,21.3
2022-08-17T00:12:45.995Z,21.2
2022-08-17T00:17:18.591Z,21.1
2022-08-17T00:22:37.930Z,21.2
2022-08-17T00:27:30.987Z,21.2
2022-08-17T00:33:18.372Z,21.2
2022-08-17T00:37:40.688Z,21.2
2022-08-17T00:42:43.039Z,21.1
2022-08-17T00:47:46.337Z,21.1
2022-08-17T00:52:48.785Z,21
2022-08-17T00:57:57.085Z,21.1
2022-08-17T01:03:00.417Z,21.1
2022-08-17T01:08:03.229Z,20.9
2022-08-17T01:13:05.620Z,20.9
2022-08-17T01:18:10.721Z,20.9
2022-08-17T01:23:21.800Z,20.9
2022-08-17T01:28:56.890Z,20.8
2022-08-17T01:33:19.446Z,20.8
2022-08-17T01:38:29.364Z,20.8
2022-08-17T01:43:31.642Z,20.7
2022-08-17T01:48:34.052Z,20.7
2022-08-17T01:58:37.562Z,20.4
2022-08-17T02:03:40.421Z,20.4
2022-08-17T02:09:05.169Z,20
2022-08-17T02:13:55.107Z,20
2022-08-17T02:18:56.518Z,20
2022-08-17T02:23:58.857Z,19.9
2022-08-17T02:29:01.949Z,20
2022-08-17T02:34:06.734Z,19.9
2022-08-17T02:39:09.652Z,19.9
2022-08-17T02:44:12.630Z,19.9
2022-08-17T02:49:20.552Z,19.9
2022-08-17T02:54:43.691Z,19.8
2022-08-17T02:59:26.167Z,19.8
2022-08-17T03:04:28.590Z,19.7
2022-08-17T03:09:30.938Z,19.7
2022-08-17T03:14:35.187Z,19.6
2022-08-17T03:19:45.476Z,19
2022-08-17T03:24:50.464Z,18.9
2022-08-17T03:29:53.249Z,18.9
2022-08-17T03:34:55.944Z,18.8
2022-08-17T03:39:59.829Z,18.9
2022-08-17T03:45:03.534Z,18.9
2022-08-17T03:50:11.638Z,19.1
2022-08-17T03:55:07.305Z,18.9
2022-08-17T04:00:09.946Z,18.8
2022-08-17T04:05:12.520Z,18.8
2022-08-17T04:10:15.417Z,19
2022-08-17T04:15:17.925Z,19.5
2022-08-17T04:20:20.613Z,19.8
2022-08-17T04:25:23.267Z,20
2022-08-17T04:30:26.173Z,20.3
2022-08-17T04:35:29.195Z,20.6
2022-08-17T04:40:33.293Z,20.6
2022-08-17T04:45:37.047Z,21.5
2022-08-17T04:50:40.524Z,21.9
2022-08-17T04:55:42.870Z,21.9
2022-08-17T05:00:45.957Z,22.8
2022-08-17T05:05:50.145Z,23.3
2022-08-17T05:10:53.055Z,23.7
2022-08-17T05:15:55.617Z,23.7
2022-08-17T05:20:58.317Z,24.6
2022-08-17T05:26:03.245Z,25.1
2022-08-17T05:31:02.169Z,25.5
2022-08-17T05:36:04.505Z,25.4
2022-08-17T05:41:07.421Z,26.3
2022-08-17T05:46:09.773Z,26.2
2022-08-17T05:51:12.329Z,26.7
2022-08-17T05:56:32.543Z,27.4
2022-08-17T06:01:17.910Z,27.8
2022-08-17T06:06:32.651Z,28.2
2022-08-17T06:11:25.626Z,28.3
2022-08-17T06:16:36.589Z,28.5
2022-08-17T06:21:38.902Z,28.5
2022-08-17T06:26:45.284Z,28.9
2022-08-17T06:31:48.237Z,28.8
2022-08-17T06:36:50.509Z,29.1
2022-08-17T06:41:54.197Z,30.3
2022-08-17T06:46:57.009Z,31
2022-08-17T06:52:00.043Z,31.5
2022-08-17T06:57:02.900Z,31.6
2022-08-17T07:02:05.369Z,31.5
2022-08-17T07:07:08.739Z,32.7
2022-08-17T07:12:11.300Z,32.9
2022-08-17T07:17:14.230Z,33.5
2022-08-17T07:22:17.134Z,33.7
2022-08-17T07:27:20.525Z,33.6
2022-08-17T07:32:23.419Z,33.8
2022-08-17T07:37:26.426Z,34
2022-08-17T07:42:29.260Z,34.7
2022-08-17T07:47:31.980Z,34.7
2022-08-17T07:52:53.837Z,35.7
2022-08-17T07:57:36.878Z,35.6
2022-08-17T08:02:39.795Z,33
2022-08-17T08:07:44.060Z,32.9
2022-08-17T08:12:48.267Z,34.1
2022-08-17T08:17:47.790Z,33.4
2022-08-17T08:22:52.642Z,33.4
2022-08-17T08:27:55.049Z,34.3
2022-08-17T08:32:59.582Z,35
2022-08-17T08:38:02.052Z,35
2022-08-17T08:43:04.354Z,35.4
2022-08-17T08:48:53.615Z,37.4
2022-08-17T08:53:18.290Z,37.7
2022-08-17T08:58:43.931Z,38.6
2022-08-17T09:03:54.219Z,36.6
2022-08-17T09:08:29.581Z,38.8
2022-08-17T09:13:32.417Z,39.5
2022-08-17T09:19:06.741Z,38.5
2022-08-17T09:23:40.166Z,37.4
2022-08-17T09:28:43.104Z,37.4
2022-08-17T09:33:45.417Z,39.5
2022-08-17T09:38:47.660Z,39.9
2022-08-17T09:43:50.051Z,39.5
2022-08-17T09:48:53.825Z,40.4
2022-08-17T09:54:37.368Z,40.5
2022-08-17T09:59:03.497Z,42.7
2022-08-17T10:04:10.340Z,42.8
2022-08-17T10:09:13.279Z,43.6
2022-08-17T10:14:45.624Z,43.2
2022-08-17T10:19:17.646Z,45.2
2022-08-17T10:24:20.339Z,44.8
2022-08-17T10:29:22.977Z,44.7
2022-08-17T10:34:36.231Z,45.2
2022-08-17T10:39:34.793Z,42
2022-08-17T10:44:42.662Z,42
2022-08-17T10:49:45.455Z,42.6
2022-08-17T10:54:47.834Z,42.6
2022-08-17T10:59:51.885Z,43.4
2022-08-17T11:04:54.764Z,42.3
2022-08-17T11:09:57.743Z,41.7
2022-08-17T11:15:04.108Z,43.2
2022-08-17T11:20:09.195Z,41.5
2022-08-17T11:25:13.107Z,41.5
2022-08-17T11:30:19.291Z,42
2022-08-17T11:35:19.241Z,41.9
2022-08-17T11:40:24.857Z,40.7
2022-08-17T11:45:34.983Z,41.6
2022-08-17T11:50:37.355Z,41.6
2022-08-17T11:55:46.156Z,41.8
2022-08-17T12:00:48.741Z,41.7
2022-08-17T12:05:54.619Z,42.6
2022-08-17T12:10:57.539Z,41.6
2022-08-17T12:16:01.134Z,38.9
2022-08-17T12:21:06.002Z,39.1
2022-08-17T12:26:09.926Z,39.7
2022-08-17T12:31:12.649Z,40.8
2022-08-17T12:36:15.273Z,40.4
2022-08-17T12:41:17.723Z,40.4
2022-08-17T12:46:20.821Z,40.3
2022-08-17T12:51:28.182Z,39
2022-08-17T12:56:30.746Z,38.9
2022-08-17T13:06:35.974Z,38.3
2022-08-17T13:11:38.772Z,38.2
2022-08-17T13:16:42.363Z,38.4
2022-08-17T13:21:44.749Z,38.4
2022-08-17T13:26:48.020Z,37.6
2022-08-17T13:32:05.934Z,37.1
2022-08-17T13:36:55.772Z,37
2022-08-17T13:42:00.593Z,36.3
2022-08-17T13:47:02.962Z,36.2
2022-08-17T13:52:05.946Z,36.7
2022-08-17T13:57:09.735Z,36.6
2022-08-17T14:02:12.442Z,36.8
2022-08-17T14:07:15.202Z,36.5
2022-08-17T14:12:18.281Z,36.5
2022-08-17T14:17:20.716Z,36.3
2022-08-17T14:22:23.348Z,35.5
2022-08-17T14:27:25.662Z,35.4
2022-08-17T14:32:28.161Z,35
2022-08-17T14:37:31.337Z,34.8
2022-08-17T14:42:34.354Z,34.8
2022-08-17T14:47:37.242Z,35.1
2022-08-17T14:52:39.834Z,35.6
2022-08-17T14:57:42.101Z,35.5
2022-08-17T15:02:44.648Z,35.6
2022-08-17T15:07:47.627Z,35
2022-08-17T15:12:50.321Z,34.6
2022-08-17T15:17:52.744Z,34.6
2022-08-17T15:22:55.260Z,34.7
2022-08-17T15:27:58.142Z,34.2
2022-08-17T15:33:01.789Z,34.3
2022-08-17T15:38:13.513Z,34.3
2022-08-17T15:43:06.030Z,34.3
2022-08-17T15:48:09.050Z,34.3
2022-08-17T15:53:15.383Z,34.2
2022-08-17T15:58:33.365Z,34.1
2022-08-17T16:04:30.616Z,33.9
2022-08-17T16:08:33.818Z,33.9
2022-08-17T16:13:36.769Z,33.7
2022-08-17T16:18:39.532Z,33.7
2022-08-17T16:23:42.471Z,33.5
2022-08-17T16:28:45.405Z,33.5
2022-08-17T16:34:20.092Z,33.3
2022-08-17T16:38:52.803Z,33.3
2022-08-17T16:43:55.234Z,33.1
2022-08-17T16:48:57.637Z,32.9
2022-08-17T16:54:03.099Z,32.7
2022-08-17T16:59:43.882Z,32.5
2022-08-17T17:04:10.103Z,32.3
2022-08-17T17:09:12.447Z,32.2
2022-08-17T17:14:18.383Z,31.9
2022-08-17T17:19:37.166Z,31.6
2022-08-17T17:24:32.548Z,31.5
2022-08-17T17:29:51.376Z,31.2
2022-08-17T17:34:50.945Z,30.9
2022-08-17T17:39:54.263Z,30.7
2022-08-17T17:45:00.955Z,30.4
2022-08-17T17:50:06.129Z,30.2
2022-08-17T17:55:10.163Z,30.1
2022-08-17T18:00:12.989Z,30
2022-08-17T18:05:15.600Z,29.9
2022-08-17T18:10:32.981Z,29.5
2022-08-17T18:15:27.430Z,29.3
2022-08-17T18:20:58.615Z,29.3
2022-08-17T18:25:31.743Z,29.2
2022-08-17T18:30:35.066Z,29.2
2022-08-17T18:35:37.763Z,29.2
2022-08-17T18:40:41.881Z,29.1
2022-08-17T18:45:48.568Z,28.8
2022-08-17T18:50:55.654Z,28.7
2022-08-17T18:56:02.192Z,28.5
2022-08-17T19:01:04.879Z,28.4
2022-08-17T19:06:07.985Z,28.3
2022-08-17T19:11:13.265Z,28.1
2022-08-17T19:16:17.991Z,27.9
2022-08-17T19:21:22.339Z,27.7
2022-08-17T19:26:58.862Z,27.6
2022-08-17T19:31:31.785Z,27.3
2022-08-17T19:36:34.277Z,27.3
2022-08-17T19:41:44.230Z,27.1
2022-08-17T19:47:01.270Z,27
2022-08-17T19:51:50.327Z,26.9
2022-08-17T19:56:55.877Z,26.6
2022-08-17T20:02:03.206Z,26.2
2022-08-17T20:07:06.532Z,25.7
2022-08-17T20:12:10.709Z,25.5
2022-08-17T20:17:13.745Z,25.4
2022-08-17T20:22:16.128Z,25.4
2022-08-17T20:27:18.969Z,25.3
2022-08-17T20:32:28.525Z,25.2
2022-08-17T20:37:31.748Z,25.1
2022-08-17T20:42:35.187Z,25
2022-08-17T20:47:37.891Z,25
2022-08-17T20:52:42.213Z,24.9
2022-08-17T20:57:45.517Z,24.6
2022-08-17T21:02:48.263Z,24.4
2022-08-17T21:07:50.875Z,24.2
2022-08-17T21:12:53.342Z,24.2
2022-08-17T21:17:57.559Z,24.1
2022-08-17T21:23:01.807Z,24.2
2022-08-17T21:28:06.582Z,24.1
2022-08-17T21:33:12.718Z,24.1
2022-08-17T21:38:18.531Z,24.2
2022-08-17T21:43:21.500Z,24.2
2022-08-17T21:48:24.553Z,24.3
2022-08-17T21:53:34.372Z,24.3
2022-08-17T21:58:36.967Z,24.3
2022-08-17T22:03:40.348Z,24.4
2022-08-17T22:08:42.806Z,24.3
2022-08-17T22:13:45.404Z,24.4
2022-08-17T22:18:54.670Z,24.4
2022-08-17T22:23:57.328Z,24.4
2022-08-17T22:28:59.653Z,24.4
2022-08-17T22:34:02.282Z,24.3
2022-08-17T22:39:04.622Z,24.3
2022-08-17T22:44:06.948Z,24.4
2022-08-17T22:49:09.240Z,24.3
2022-08-17T22:54:12.317Z,24.2
2022-08-17T22:59:15.050Z,24.2
2022-08-17T23:04:18.140Z,24.3
2022-08-17T23:09:20.495Z,24.3
2022-08-17T23:14:23.521Z,24.3
2022-08-17T23:19:26.199Z,24.3
2022-08-17T23:24:28.543Z,24.4
2022-08-17T23:29:31.336Z,24.5
2022-08-17T23:34:34.404Z,24.4
2022-08-17T23:39:37.167Z,24.3
2022-08-17T23:44:39.963Z,24.1
2022-08-17T23:54:43.306Z,23.8
2022-08-17T23:59:46.089Z,23.8
